createdAt,value
2022-12-25T08:03:40.950Z,14.40
2022-12-25T08:06:45.254Z,11.48
2022-12-25T08:09:49.727Z,13.38
2022-12-25T08:12:56.243Z,14.93
2022-12-25T08:16:01.832Z,16.63
2022-12-25T08:19:06.199Z,18.90
2022-12-25T08:22:10.658Z,14.00
2022-12-25T08:25:15.909Z,20.60
2022-12-25T08:28:20.402Z,16.92
2022-12-25T08:31:27.970Z,20.07
2022-12-25T08:34:32.105Z,15.15
2022-12-25T08:37:36.491Z,17.00
2022-12-25T08:40:40.992Z,19.65
2022-12-25T08:43:45.759Z,17.38
2022-12-25T08:46:50.044Z,16.77
2022-12-25T08:49:54.364Z,18.07
2022-12-25T08:52:58.472Z,16.20
2022-12-25T08:56:04.581Z,18.08
2022-12-25T08:59:09.048Z,12.95
2022-12-25T09:02:13.821Z,12.35
2022-12-25T09:05:18.409Z,15.40
2022-12-25T09:08:23.035Z,16.10
2022-12-25T09:11:27.175Z,11.50
2022-12-25T09:14:31.621Z,15.23
2022-12-25T09:17:36.264Z,13.45
2022-12-25T09:20:40.605Z,10.20
2022-12-25T09:23:45.239Z,13.30
2022-12-25T09:26:49.392Z,14.50
2022-12-25T09:29:54.030Z,12.35
2022-12-25T09:32:58.777Z,13.25
2022-12-25T09:36:08.662Z,12.40
2022-12-25T09:39:13.080Z,11.07
2022-12-25T09:42:22.455Z,10.35
2022-12-25T09:45:35.744Z,11.75
2022-12-25T09:48:45.600Z,12.32
2022-12-25T09:51:59.170Z,12.80
2022-12-25T09:55:21.179Z,12.15
2022-12-25T09:58:26.052Z,8.73
2022-12-25T10:01:44.017Z,7.82
2022-12-25T10:05:04.863Z,12.50
2022-12-25T10:08:16.536Z,14.30
2022-12-25T10:11:52.355Z,12.90
2022-12-25T10:15:33.418Z,13.27
2022-12-25T10:18:37.992Z,13.55
2022-12-25T10:21:42.699Z,15.15
2022-12-25T10:24:52.850Z,13.70
2022-12-25T10:28:05.196Z,12.75
2022-12-25T10:31:23.160Z,14.45
2022-12-25T10:34:28.837Z,13.88
2022-12-25T10:37:33.596Z,14.02
2022-12-25T10:41:02.724Z,11.23
2022-12-25T10:44:15.747Z,12.63
2022-12-25T10:47:25.388Z,13.07
2022-12-25T10:50:30.034Z,13.55
2022-12-25T10:53:39.746Z,13.33
2022-12-25T10:57:03.447Z,12.63
2022-12-25T11:00:21.492Z,12.57
2022-12-25T11:03:31.290Z,12.13
2022-12-25T11:06:35.866Z,11.82
2022-12-25T11:09:40.617Z,13.48
2022-12-25T11:12:46.003Z,9.07
2022-12-25T11:16:02.609Z,10.40
2022-12-25T11:19:30.359Z,9.68
2022-12-25T11:22:37.256Z,9.05
2022-12-25T11:25:42.059Z,9.05
2022-12-25T11:28:48.750Z,10.02
2022-12-25T11:31:56.047Z,9.20
2022-12-25T11:35:02.499Z,11.35
2022-12-25T11:38:09.264Z,12.18
2022-12-25T11:41:15.348Z,11.60
2022-12-25T11:44:38.159Z,11.60
2022-12-25T11:48:02.360Z,10.25
2022-12-25T11:51:07.192Z,10.02
2022-12-25T11:54:11.264Z,9.40
2022-12-25T11:57:15.959Z,10.38
2022-12-25T12:00:21.201Z,10.02
2022-12-25T12:03:33.736Z,10.68
2022-12-25T12:06:38.096Z,13.52
2022-12-25T12:09:54.468Z,10.37
2022-12-25T12:13:13.373Z,10.27
2022-12-25T12:16:17.747Z,9.93
2022-12-25T12:19:30.485Z,12.10
2022-12-25T12:22:35.779Z,10.35
2022-12-25T12:25:42.685Z,10.45
2022-12-25T12:28:47.734Z,11.77
2022-12-25T12:31:53.542Z,10.35
2022-12-25T12:34:58.652Z,10.38
2022-12-25T12:38:07.916Z,11.82
2022-12-25T12:41:14.592Z,12.05
2022-12-25T12:44:21.570Z,10.68
2022-12-25T12:47:40.383Z,9.95
2022-12-25T12:50:44.465Z,10.48
2022-12-25T12:53:48.972Z,10.45
2022-12-25T12:56:59.347Z,9.32
2022-12-25T13:00:11.322Z,9.32
2022-12-25T13:03:37.289Z,9.60
2022-12-25T13:07:10.149Z,11.07
2022-12-25T13:10:35.993Z,10.77
2022-12-25T13:13:43.761Z,8.95
2022-12-25T13:16:51.593Z,8.80
2022-12-25T13:19:59.556Z,9.38
2022-12-25T13:23:24.231Z,9.77
2022-12-25T13:26:29.476Z,9.95
2022-12-25T13:29:36.733Z,9.07
2022-12-25T13:32:41.845Z,9.35
2022-12-25T13:35:47.170Z,10.70
2022-12-25T13:38:54.008Z,8.57
2022-12-25T13:42:05.706Z,8.85
2022-12-25T13:45:13.246Z,7.53
2022-12-25T13:48:20.130Z,8.77
2022-12-25T13:51:24.530Z,7.55
2022-12-25T13:54:29.171Z,8.23
2022-12-25T13:57:37.597Z,8.77
2022-12-25T14:00:52.489Z,9.82
2022-12-25T14:03:56.959Z,9.32
2022-12-25T14:07:10.085Z,10.33
2022-12-25T14:10:14.423Z,8.75
2022-12-25T14:13:22.410Z,9.82
2022-12-25T14:16:29.351Z,9.07
2022-12-25T14:19:34.537Z,7.05
2022-12-25T14:22:38.751Z,6.97
2022-12-25T14:25:47.529Z,6.18
2022-12-25T14:29:05.703Z,7.10
2022-12-25T14:32:17.135Z,6.35
2022-12-25T14:35:23.736Z,6.65
2022-12-25T14:38:35.008Z,6.57
2022-12-25T14:41:41.899Z,7.20
2022-12-25T14:44:58.696Z,6.93
2022-12-25T14:48:22.891Z,7.80
2022-12-25T14:51:30.700Z,7.82
2022-12-25T14:54:36.559Z,7.47
2022-12-25T14:57:46.730Z,7.80
2022-12-25T15:01:00.609Z,7.00
2022-12-25T15:04:09.711Z,6.22
2022-12-25T15:07:29.732Z,6.80
2022-12-25T15:13:59.568Z,5.88
2022-12-25T15:17:04.477Z,7.35
2022-12-25T15:20:13.061Z,6.47
2022-12-25T15:23:20.014Z,7.63
2022-12-25T15:26:26.817Z,7.70
2022-12-25T15:30:07.742Z,6.53
2022-12-25T15:32:55.961Z,4.68
2022-12-25T15:36:00.885Z,6.38
2022-12-25T15:39:05.478Z,6.93
2022-12-25T15:42:15.065Z,8.13
2022-12-25T15:45:26.071Z,8.43
2022-12-25T15:48:30.793Z,7.68
2022-12-25T15:51:35.359Z,9.35
2022-12-25T15:54:39.879Z,8.82
2022-12-25T15:57:47.480Z,8.23
2022-12-25T16:00:52.374Z,7.40
2022-12-25T16:03:56.790Z,10.02
2022-12-25T16:07:01.522Z,7.93
2022-12-25T16:13:11.431Z,8.40
2022-12-25T16:16:15.797Z,9.55
2022-12-25T16:19:20.078Z,8.90
2022-12-25T16:22:28.345Z,8.95
2022-12-25T16:25:32.818Z,11.23
2022-12-25T16:28:37.178Z,7.07
2022-12-25T16:31:41.883Z,6.75
2022-12-25T16:34:48.511Z,7.93
2022-12-25T16:37:53.145Z,7.13
2022-12-25T16:41:01.674Z,7.10
2022-12-25T16:44:11.165Z,6.15
2022-12-25T16:47:15.307Z,7.07
2022-12-25T16:50:19.906Z,6.83
2022-12-25T16:53:24.320Z,8.30
2022-12-25T16:56:30.879Z,7.85
2022-12-25T16:59:35.962Z,10.90
2022-12-25T17:02:40.969Z,8.40
2022-12-25T17:05:45.814Z,6.65
2022-12-25T17:08:51.990Z,10.90
2022-12-25T17:11:56.375Z,8.60
2022-12-25T17:15:00.638Z,8.57
2022-12-25T17:18:04.970Z,8.40
2022-12-25T17:21:09.634Z,8.00
2022-12-25T17:24:15.073Z,9.83
2022-12-25T17:27:19.722Z,9.88
2022-12-25T17:30:23.916Z,8.48
2022-12-25T17:33:28.439Z,10.48
2022-12-25T17:36:33.162Z,10.23
2022-12-25T17:39:38.516Z,9.98
2022-12-25T17:42:43.137Z,8.23
2022-12-25T17:45:47.311Z,7.63
2022-12-25T17:48:52.750Z,10.10
2022-12-25T17:51:57.198Z,9.25
2022-12-25T17:55:01.703Z,9.85
2022-12-25T17:58:06.336Z,10.00
2022-12-25T18:01:12.405Z,7.95
2022-12-25T18:04:17.069Z,8.68
2022-12-25T18:07:21.231Z,8.53
2022-12-25T18:10:25.729Z,9.03
2022-12-25T18:13:30.663Z,10.20
2022-12-25T18:16:37.446Z,9.73
2022-12-25T18:19:41.853Z,10.65
2022-12-25T18:22:46.025Z,9.55
2022-12-25T18:25:50.575Z,11.98
2022-12-25T18:28:55.741Z,11.37
2022-12-25T18:32:00.353Z,13.85
2022-12-25T18:35:05.499Z,12.98
2022-12-25T18:41:15.292Z,15.23
2022-12-25T18:44:19.454Z,13.73
2022-12-25T18:47:24.055Z,17.15
2022-12-25T18:50:28.437Z,17.90
2022-12-25T18:53:34.349Z,18.88
2022-12-25T18:56:38.796Z,20.17
2022-12-25T18:59:43.225Z,14.83
2022-12-25T19:02:48.355Z,16.17
2022-12-25T19:05:53.109Z,21.45
2022-12-25T19:08:58.211Z,20.02
2022-12-25T19:12:03.015Z,25.17
2022-12-25T19:15:07.509Z,21.10
2022-12-25T19:18:11.908Z,21.42
2022-12-25T19:21:16.302Z,17.23
2022-12-25T19:24:21.443Z,21.38
2022-12-25T19:27:25.713Z,18.70
2022-12-25T19:30:30.048Z,17.23
2022-12-25T19:33:35.578Z,17.77
2022-12-25T19:36:40.610Z,17.13
2022-12-25T19:39:48.085Z,18.75
2022-12-25T19:42:52.376Z,16.55
2022-12-25T19:45:57.557Z,12.55
2022-12-25T19:49:04.313Z,17.23
2022-12-25T19:52:08.665Z,17.73
2022-12-25T19:55:13.165Z,19.73
2022-12-25T19:58:17.480Z,18.73
2022-12-25T20:01:25.185Z,14.50
2022-12-25T20:04:29.663Z,21.33
2022-12-25T20:07:34.466Z,14.65
2022-12-25T20:10:43.848Z,17.63
2022-12-25T20:13:48.900Z,18.55
2022-12-25T20:16:53.374Z,17.83
2022-12-25T20:19:57.808Z,16.88
2022-12-25T20:23:02.222Z,15.60
2022-12-25T20:26:07.259Z,19.67
2022-12-25T20:32:16.277Z,16.20
2022-12-25T20:35:20.339Z,15.02
2022-12-25T20:38:24.665Z,16.33
2022-12-25T20:41:29.862Z,16.35
2022-12-25T20:44:34.755Z,16.92
2022-12-25T20:47:39.314Z,14.80
2022-12-25T20:50:43.571Z,16.60
2022-12-25T20:53:48.522Z,18.75
2022-12-25T20:56:52.657Z,16.75
2022-12-25T20:59:57.147Z,17.00
2022-12-25T21:03:01.788Z,16.85
2022-12-25T21:06:07.340Z,16.13
2022-12-25T21:09:11.741Z,19.02
2022-12-25T21:12:15.963Z,18.80
2022-12-25T21:15:20.764Z,18.73
2022-12-25T21:18:27.478Z,14.50
2022-12-25T21:21:31.957Z,18.92
2022-12-25T21:24:36.332Z,15.00
2022-12-25T21:27:40.535Z,17.75
2022-12-25T21:30:44.913Z,15.57
2022-12-25T21:33:52.165Z,13.55
2022-12-25T21:36:56.529Z,16.70
2022-12-25T21:40:01.118Z,15.27
2022-12-25T21:43:06.463Z,15.90
2022-12-25T21:46:12.593Z,14.43
2022-12-25T21:49:37.151Z,13.60
2022-12-25T21:52:41.087Z,14.75
2022-12-25T21:56:03.987Z,14.20
2022-12-25T21:59:09.193Z,12.32
2022-12-25T22:02:13.570Z,12.50
2022-12-25T22:05:37.956Z,11.60
2022-12-25T22:08:42.007Z,11.10
2022-12-25T22:12:05.052Z,9.60
2022-12-25T22:15:10.481Z,10.02
2022-12-25T22:21:37.674Z,9.43
2022-12-25T22:24:42.483Z,7.45
2022-12-25T22:27:47.609Z,8.75
2022-12-25T22:30:52.000Z,8.55
2022-12-25T22:33:56.435Z,8.68
2022-12-25T22:37:02.207Z,9.13
2022-12-25T22:40:07.866Z,9.05
2022-12-25T22:43:12.126Z,10.07
2022-12-25T22:46:17.448Z,7.97
2022-12-25T22:49:21.920Z,7.33
2022-12-25T22:55:30.998Z,6.38
2022-12-25T22:58:35.687Z,5.15
2022-12-25T23:01:40.564Z,5.97
2022-12-25T23:04:44.857Z,7.22
2022-12-25T23:07:49.091Z,5.50
2022-12-25T23:10:53.633Z,5.55
2022-12-25T23:14:16.886Z,4.80
2022-12-25T23:17:39.827Z,4.95
2022-12-25T23:21:02.553Z,3.90
2022-12-25T23:24:27.803Z,4.68
2022-12-25T23:27:32.304Z,4.72
2022-12-25T23:30:36.744Z,3.72
2022-12-25T23:33:40.965Z,4.13
2022-12-25T23:36:45.300Z,3.33
2022-12-25T23:39:50.149Z,3.90
2022-12-25T23:42:54.782Z,3.83
2022-12-25T23:45:59.332Z,3.40
2022-12-25T23:49:03.870Z,3.30
2022-12-25T23:52:11.272Z,2.67
2022-12-25T23:55:15.335Z,3.55
2022-12-25T23:58:19.856Z,2.55
